Time;durP1;ratioP1;P1;durP2;ratioP2;P2;SDS_P1;SDS_P2;PMS_P1;PMS_P2;Temp;Humidity;BMP_temperature;BMP_pressure;BME280_temperature;BME280_humidity;BME280_pressure;Samples;Min_cycle;Max_cycle;Signal;HPM_P1;HPM_P2
2022/10/02 00:02:13;;;;;;;23.92;4.68;;;11.80;99.90;;;;;;5052062;28;20080;-45
2022/10/02 00:04:44;;;;;;;18.73;4.78;;;11.80;99.90;;;;;;5053717;28;20102;-47
2022/10/02 00:07:12;;;;;;;26.60;4.13;;;11.80;99.90;;;;;;5053336;28;20049;-46
2022/10/02 00:09:40;;;;;;;21.13;4.25;;;11.80;99.90;;;;;;5053952;28;20088;-47
2022/10/02 00:12:09;;;;;;;22.08;4.07;;;11.80;99.90;;;;;;5052862;28;20106;-47
2022/10/02 00:14:38;;;;;;;25.58;4.72;;;11.80;99.90;;;;;;5061496;28;20043;-47
2022/10/02 00:17:05;;;;;;;26.08;3.90;;;11.80;99.90;;;;;;5063587;28;20049;-49
2022/10/02 00:19:31;;;;;;;21.60;3.40;;;11.80;99.90;;;;;;5052264;28;20060;-47
2022/10/02 00:22:23;;;;;;;18.05;3.47;;;11.80;99.90;;;;;;5052846;28;20554;-45
2022/10/02 00:24:53;;;;;;;19.83;3.75;;;11.80;99.90;;;;;;5051266;28;20103;-46
2022/10/02 00:27:45;;;;;;;15.82;3.05;;;11.80;99.90;;;;;;5051512;28;20096;-43
2022/10/02 00:30:14;;;;;;;20.45;3.65;;;11.80;99.90;;;;;;5053718;28;20052;-45
2022/10/02 00:32:44;;;;;;;19.90;4.05;;;11.80;99.90;;;;;;5052669;28;20057;-43
2022/10/02 00:35:44;;;;;;;15.20;3.03;;;11.80;99.90;;;;;;5051201;28;20057;-44
2022/10/02 00:38:19;;;;;;;16.90;3.28;;;11.70;99.90;;;;;;5039372;28;20120;-44
2022/10/02 00:41:10;;;;;;;11.63;2.45;;;11.70;99.90;;;;;;5067834;28;20080;-47
2022/10/02 00:43:41;;;;;;;22.27;2.97;;;11.70;99.90;;;;;;5069962;28;20118;-46
2022/10/02 00:46:31;;;;;;;21.90;3.25;;;11.70;99.90;;;;;;5073550;28;20095;-45
2022/10/02 00:49:15;;;;;;;12.73;2.85;;;11.60;99.90;;;;;;5028245;28;20496;-46
2022/10/02 00:51:52;;;;;;;16.63;2.85;;;11.60;99.90;;;;;;5039246;28;20084;-46
2022/10/02 00:54:47;;;;;;;21.20;2.72;;;11.60;99.90;;;;;;5053489;28;20122;-45
2022/10/02 00:57:18;;;;;;;19.98;2.78;;;11.60;99.90;;;;;;5050088;28;20551;-45
2022/10/02 00:59:51;;;;;;;14.23;2.30;;;11.60;99.90;;;;;;5068120;28;20129;-44
2022/10/02 01:03:03;;;;;;;18.35;2.72;;;11.60;99.90;;;;;;5050666;28;20045;-46
2022/10/02 01:05:30;;;;;;;13.27;2.60;;;11.60;99.90;;;;;;5052397;28;20085;-46
2022/10/02 01:07:56;;;;;;;18.45;3.38;;;11.50;99.90;;;;;;5041785;28;20120;-48
2022/10/02 01:10:25;;;;;;;13.25;2.42;;;11.50;99.90;;;;;;5061658;28;20110;-49
2022/10/02 01:12:52;;;;;;;13.13;2.42;;;11.50;99.90;;;;;;5051167;28;20114;-46
2022/10/02 01:15:20;;;;;;;17.52;3.20;;;11.50;99.90;;;;;;5032039;28;20567;-45
2022/10/02 01:17:48;;;;;;;15.07;2.38;;;11.50;99.90;;;;;;5047453;28;20048;-45
2022/10/02 01:20:18;;;;;;;12.48;2.33;;;11.50;99.90;;;;;;5064279;28;20084;-48
2022/10/02 01:22:46;;;;;;;15.98;2.75;;;11.60;99.90;;;;;;5055525;28;20172;-47
2022/10/02 01:25:14;;;;;;;10.48;2.28;;;11.60;99.90;;;;;;5068517;28;20049;-46
2022/10/02 01:27:41;;;;;;;16.67;2.92;;;11.60;99.90;;;;;;5051407;28;20056;-42
2022/10/02 01:30:10;;;;;;;11.43;1.95;;;11.50;99.90;;;;;;5050385;28;20040;-47
2022/10/02 01:32:39;;;;;;;12.60;2.15;;;11.60;99.90;;;;;;5051544;28;20556;-47
2022/10/02 01:35:07;;;;;;;11.05;2.45;;;11.60;99.90;;;;;;5050957;28;20443;-46
2022/10/02 01:37:36;;;;;;;14.57;2.28;;;11.60;99.90;;;;;;5050931;28;20049;-49
2022/10/02 01:40:08;;;;;;;13.32;2.63;;;11.50;99.90;;;;;;5048771;28;20057;-47
2022/10/02 01:42:36;;;;;;;13.98;2.38;;;11.60;99.90;;;;;;5051153;28;20052;-47
2022/10/02 01:45:03;;;;;;;9.90;1.95;;;11.60;99.90;;;;;;5052597;28;20135;-46
2022/10/02 01:47:32;;;;;;;21.67;2.78;;;11.60;99.90;;;;;;5049488;28;20052;-46
2022/10/02 01:50:06;;;;;;;13.18;2.92;;;11.60;99.90;;;;;;5052451;28;20103;-47
2022/10/02 01:52:38;;;;;;;15.20;2.72;;;11.60;99.90;;;;;;5050823;28;20139;-45
2022/10/02 01:55:22;;;;;;;13.43;2.63;;;11.60;99.90;;;;;;5047470;28;20449;-45
2022/10/02 01:57:54;;;;;;;19.58;3.03;;;11.70;99.90;;;;;;5050196;28;20048;-46
2022/10/02 02:00:23;;;;;;;13.98;3.30;;;11.70;99.90;;;;;;5051332;28;20511;-45
2022/10/02 02:02:53;;;;;;;17.55;2.90;;;11.70;99.90;;;;;;5051539;28;20049;-47
2022/10/02 02:05:26;;;;;;;10.90;2.90;;;11.60;99.90;;;;;;5052215;28;20051;-42
2022/10/02 02:07:58;;;;;;;15.15;3.40;;;11.70;99.90;;;;;;5050349;28;20071;-48
2022/10/02 02:10:26;;;;;;;16.92;3.10;;;11.60;99.90;;;;;;5040402;28;20053;-45
2022/10/02 02:12:56;;;;;;;12.70;2.92;;;11.60;99.90;;;;;;5051439;28;20064;-50
2022/10/02 02:15:25;;;;;;;20.02;3.45;;;11.60;99.90;;;;;;5051642;28;20099;-46
2022/10/02 02:17:54;;;;;;;22.33;3.38;;;11.60;99.90;;;;;;5051062;28;20099;-43
2022/10/02 02:20:23;;;;;;;16.52;3.47;;;11.60;99.90;;;;;;5050437;28;20058;-46
2022/10/02 02:22:51;;;;;;;14.93;3.25;;;11.60;99.90;;;;;;5050347;28;20053;-49
2022/10/02 02:25:18;;;;;;;27.63;3.55;;;11.60;99.90;;;;;;5051215;28;20485;-47
2022/10/02 02:27:52;;;;;;;19.50;3.35;;;11.60;99.90;;;;;;5050624;28;20072;-48
2022/10/02 02:30:20;;;;;;;15.15;3.10;;;11.50;99.90;;;;;;5051968;28;20111;-49
2022/10/02 02:32:48;;;;;;;20.60;3.63;;;11.50;99.90;;;;;;5053481;28;20057;-47
2022/10/02 02:35:17;;;;;;;22.00;3.67;;;11.50;99.90;;;;;;5074525;28;20052;-46
2022/10/02 02:37:44;;;;;;;19.88;3.45;;;11.50;99.90;;;;;;5069289;28;20128;-42
2022/10/02 02:40:12;;;;;;;22.25;4.00;;;11.50;99.90;;;;;;5055990;28;20083;-45
2022/10/02 02:42:42;;;;;;;22.20;3.92;;;11.50;99.90;;;;;;5055128;28;20441;-48
2022/10/02 02:45:11;;;;;;;22.85;3.67;;;11.50;99.90;;;;;;5054882;28;20068;-45
2022/10/02 02:47:41;;;;;;;15.73;2.95;;;11.50;99.90;;;;;;5053710;28;20128;-44
2022/10/02 02:50:10;;;;;;;20.00;4.05;;;11.50;99.90;;;;;;5054807;28;20084;-45
2022/10/02 02:52:39;;;;;;;19.27;3.53;;;11.50;99.90;;;;;;5055010;28;20057;-46
2022/10/02 02:55:08;;;;;;;22.67;4.10;;;11.50;99.90;;;;;;5055021;28;20138;-45
2022/10/02 02:57:37;;;;;;;20.42;3.97;;;11.50;99.90;;;;;;5053997;28;21745;-46
2022/10/02 03:00:06;;;;;;;23.00;3.28;;;11.50;99.90;;;;;;5053621;28;20103;-45
2022/10/02 03:02:32;;;;;;;22.40;3.20;;;11.50;99.90;;;;;;5067455;28;20056;-45
2022/10/02 03:05:01;;;;;;;24.73;3.50;;;11.50;99.90;;;;;;5054877;28;20053;-44
2022/10/02 03:07:27;;;;;;;20.52;3.78;;;11.60;99.90;;;;;;5054778;28;20080;-45
2022/10/02 03:10:00;;;;;;;16.85;3.38;;;11.60;99.90;;;;;;5053925;28;20053;-45
2022/10/02 03:12:33;;;;;;;23.33;3.28;;;11.50;99.90;;;;;;5053918;28;20056;-46
2022/10/02 03:15:09;;;;;;;29.00;3.88;;;11.50;99.90;;;;;;5055075;28;20052;-44
2022/10/02 03:17:44;;;;;;;16.80;2.92;;;11.60;99.90;;;;;;5054060;28;20121;-45
2022/10/02 03:20:16;;;;;;;17.25;2.88;;;11.60;99.90;;;;;;5053142;28;20111;-44
2022/10/02 03:22:45;;;;;;;;;;;11.60;99.90;;;;;;5054903;28;20057;-44
2022/10/02 03:25:13;;;;;;;17.67;2.67;;;11.60;99.90;;;;;;5053483;28;19975;-44
2022/10/02 03:27:42;;;;;;;15.43;3.13;;;11.50;99.90;;;;;;5057906;28;20044;-44
2022/10/02 03:30:09;;;;;;;20.48;3.08;;;11.50;99.90;;;;;;5072401;28;20470;-44
2022/10/02 03:32:37;;;;;;;16.98;3.17;;;11.60;99.90;;;;;;5070391;28;20053;-45
2022/10/02 03:35:05;;;;;;;19.55;2.92;;;11.60;99.90;;;;;;5053462;28;20053;-45
2022/10/02 03:37:33;;;;;;;12.68;2.92;;;11.50;99.90;;;;;;5053426;28;20090;-45
2022/10/02 03:40:00;;;;;;;15.73;2.63;;;11.50;99.90;;;;;;5053007;28;20069;-46
2022/10/02 03:42:30;;;;;;;12.95;3.25;;;11.50;99.90;;;;;;5053292;28;20052;-45
2022/10/02 03:44:57;;;;;;;14.60;2.92;;;11.50;99.90;;;;;;5054023;28;20111;-44
2022/10/02 03:47:24;;;;;;;18.83;2.67;;;11.40;99.90;;;;;;5052136;28;20102;-44
2022/10/02 03:49:51;;;;;;;14.32;2.40;;;11.40;99.90;;;;;;5054553;28;20085;-45
2022/10/02 03:52:18;;;;;;;15.88;2.58;;;11.40;99.90;;;;;;5054495;28;20052;-43
2022/10/02 03:54:46;;;;;;;18.90;2.92;;;11.40;99.90;;;;;;5052928;28;20044;-44
2022/10/02 03:57:15;;;;;;;16.40;2.85;;;11.30;99.90;;;;;;5051184;28;20091;-44
2022/10/02 03:59:44;;;;;;;13.93;2.15;;;11.30;99.90;;;;;;5053553;28;20139;-45
2022/10/02 04:02:17;;;;;;;13.50;2.28;;;11.30;99.90;;;;;;5054003;28;20053;-44
2022/10/02 04:04:46;;;;;;;17.67;2.45;;;11.30;99.90;;;;;;5054007;28;20099;-44
2022/10/02 04:07:15;;;;;;;10.57;2.15;;;11.20;99.90;;;;;;5051994;28;20072;-44
2022/10/02 04:09:43;;;;;;;15.98;2.70;;;11.20;99.90;;;;;;5052639;28;20450;-45
2022/10/02 04:12:13;;;;;;;15.75;2.40;;;11.20;99.90;;;;;;5054043;28;20131;-44
2022/10/02 04:14:42;;;;;;;17.55;2.42;;;11.20;99.90;;;;;;5052279;28;20091;-47
2022/10/02 04:17:10;;;;;;;10.73;2.33;;;11.10;99.90;;;;;;5048559;28;20057;-45
2022/10/02 04:19:39;;;;;;;13.73;2.03;;;11.10;99.90;;;;;;5051832;28;20049;-44
2022/10/02 04:22:07;;;;;;;13.50;2.53;;;11.20;99.90;;;;;;5053057;28;20087;-43
2022/10/02 04:24:37;;;;;;;13.48;2.42;;;11.10;99.90;;;;;;5067415;28;20048;-46
2022/10/02 04:27:06;;;;;;;17.10;2.67;;;11.10;99.90;;;;;;5061349;28;20056;-45
2022/10/02 04:29:37;;;;;;;15.88;2.60;;;11.10;99.90;;;;;;5049042;28;20103;-44
2022/10/02 04:32:11;;;;;;;13.75;2.88;;;11.10;99.90;;;;;;5069152;28;20052;-46
2022/10/02 04:34:38;;;;;;;14.63;2.15;;;11.10;99.90;;;;;;5049034;28;20110;-45
2022/10/02 04:37:25;;;;;;;10.38;2.20;;;11.00;99.90;;;;;;5051829;28;20076;-43
2022/10/02 04:39:59;;;;;;;10.57;2.20;;;11.00;99.90;;;;;;5032548;28;20140;-46
2022/10/02 04:42:36;;;;;;;11.20;1.88;;;11.00;99.90;;;;;;5033246;28;20045;-37
2022/10/02 04:45:25;;;;;;;23.70;2.38;;;11.00;99.90;;;;;;5032436;28;20057;-44
2022/10/02 04:48:30;;;;;;;19.80;3.58;;;11.00;99.90;;;;;;5051991;28;20059;-45
2022/10/02 04:50:59;;;;;;;20.80;2.70;;;10.90;99.90;;;;;;5054375;28;20098;-44
2022/10/02 04:53:37;;;;;;;17.10;2.50;;;10.90;99.90;;;;;;5056878;28;20053;-43
2022/10/02 04:56:11;;;;;;;14.52;2.83;;;10.90;99.90;;;;;;5045772;28;20165;-45
2022/10/02 04:59:12;;;;;;;10.95;2.10;;;10.90;99.90;;;;;;5055622;28;20082;-45
2022/10/02 05:01:49;;;;;;;15.07;2.40;;;10.90;99.90;;;;;;5009677;28;20491;-45
2022/10/02 05:04:50;;;;;;;18.63;2.70;;;10.80;99.90;;;;;;5055696;28;20437;-47
2022/10/02 05:07:38;;;;;;;13.60;2.05;;;10.80;99.90;;;;;;5068273;28;20053;-46
2022/10/02 05:10:13;;;;;;;15.10;2.38;;;10.80;99.90;;;;;;5065009;28;20053;-43
2022/10/02 05:12:46;;;;;;;15.20;2.17;;;10.70;99.90;;;;;;5043772;28;20135;-46
2022/10/02 05:15:20;;;;;;;11.90;2.80;;;10.70;99.90;;;;;;5057988;28;20060;-45
2022/10/02 05:17:57;;;;;;;20.00;3.22;;;10.70;99.90;;;;;;5053985;28;20057;-46
2022/10/02 05:20:35;;;;;;;17.92;3.10;;;10.70;99.90;;;;;;5049894;28;20103;-44
2022/10/02 05:23:09;;;;;;;15.65;2.67;;;10.70;99.90;;;;;;5046537;28;20057;-44
2022/10/02 05:26:02;;;;;;;21.00;3.53;;;10.60;99.90;;;;;;5051083;28;20095;-45
2022/10/02 05:28:46;;;;;;;18.70;2.80;;;10.60;99.90;;;;;;5032891;28;20046;-45
2022/10/02 05:31:17;;;;;;;15.73;2.50;;;10.60;99.90;;;;;;5050354;28;20052;-45
2022/10/02 05:33:55;;;;;;;20.63;2.97;;;10.60;99.90;;;;;;5050419;28;20059;-46
2022/10/02 05:36:39;;;;;;;19.92;2.97;;;10.60;99.90;;;;;;5047403;28;20509;-46
2022/10/02 05:39:07;;;;;;;18.10;2.88;;;10.60;99.90;;;;;;5067606;28;20048;-44
2022/10/02 05:41:40;;;;;;;15.65;2.78;;;10.60;99.90;;;;;;5044691;28;20135;-46
2022/10/02 05:44:10;;;;;;;19.27;2.97;;;10.50;99.90;;;;;;5050465;28;20134;-44
2022/10/02 05:46:39;;;;;;;22.10;3.45;;;10.60;99.90;;;;;;5049929;28;20073;-46
2022/10/02 05:49:12;;;;;;;24.83;3.85;;;10.60;99.90;;;;;;5065388;28;20096;-46
2022/10/02 05:51:42;;;;;;;24.27;4.18;;;10.60;99.90;;;;;;5052429;28;20087;-49
2022/10/02 05:54:15;;;;;;;19.42;3.22;;;10.60;99.90;;;;;;5049095;28;20055;-49
2022/10/02 05:56:44;;;;;;;16.75;2.97;;;10.60;99.90;;;;;;5048364;28;20723;-50
2022/10/02 05:59:13;;;;;;;19.98;3.30;;;10.70;99.90;;;;;;5051469;28;20057;-47
2022/10/02 06:01:42;;;;;;;24.85;3.78;;;10.70;99.90;;;;;;5047981;28;20128;-49
2022/10/02 06:04:13;;;;;;;21.92;3.75;;;10.70;99.90;;;;;;5050146;28;20076;-49
2022/10/02 06:06:41;;;;;;;24.63;3.40;;;10.70;99.90;;;;;;5054083;28;20382;-47
2022/10/02 06:09:12;;;;;;;22.77;3.97;;;10.70;99.90;;;;;;5054675;28;20061;-45
2022/10/02 06:11:41;;;;;;;20.70;3.47;;;10.70;99.90;;;;;;5055586;28;20481;-46
2022/10/02 06:14:10;;;;;;;22.92;3.38;;;10.70;99.90;;;;;;5055569;28;20123;-41
2022/10/02 06:16:39;;;;;;;32.20;3.88;;;10.70;99.90;;;;;;5059651;28;20044;-47
2022/10/02 06:19:12;;;;;;;22.67;4.50;;;10.70;99.90;;;;;;5054339;28;20041;-49
2022/10/02 06:21:42;;;;;;;21.75;3.65;;;10.70;99.90;;;;;;5055598;28;20047;-47
2022/10/02 06:24:12;;;;;;;17.42;3.20;;;10.80;99.90;;;;;;5055370;28;20493;-47
2022/10/02 06:26:41;;;;;;;17.08;3.42;;;10.80;99.90;;;;;;5070937;28;20076;-49
2022/10/02 06:29:12;;;;;;;18.92;3.67;;;10.80;99.90;;;;;;5049104;28;20378;-47
2022/10/02 06:31:41;;;;;;;18.70;3.15;;;10.80;99.90;;;;;;5060148;28;20073;-45
2022/10/02 06:34:09;;;;;;;20.13;3.55;;;10.80;99.90;;;;;;5051211;28;20118;-47
2022/10/02 06:36:45;;;;;;;16.67;3.40;;;10.80;99.90;;;;;;5052026;28;20095;-44
2022/10/02 06:39:25;;;;;;;24.17;4.07;;;10.90;99.90;;;;;;5053248;28;20554;-46
2022/10/02 06:41:56;;;;;;;25.20;3.78;;;10.90;99.90;;;;;;5058833;28;20076;-45
2022/10/02 06:44:26;;;;;;;22.50;3.70;;;10.90;99.90;;;;;;5053738;28;20084;-44
2022/10/02 06:47:01;;;;;;;19.15;3.58;;;11.00;99.90;;;;;;5056650;28;20053;-45
2022/10/02 06:49:34;;;;;;;22.02;3.50;;;11.00;99.90;;;;;;5054102;28;20052;-47
2022/10/02 06:52:09;;;;;;;23.77;3.90;;;11.00;99.90;;;;;;5053586;28;20131;-44
2022/10/02 06:54:46;;;;;;;19.45;3.60;;;11.10;99.90;;;;;;5070349;28;20052;-45
2022/10/02 06:57:23;;;;;;;24.85;3.85;;;11.20;99.90;;;;;;5052599;28;20056;-47
2022/10/02 07:00:09;;;;;;;25.83;4.03;;;11.30;99.90;;;;;;5053030;28;20539;-45
2022/10/02 07:02:56;;;;;;;19.48;3.40;;;11.40;99.90;;;;;;5065205;28;20040;-45
2022/10/02 07:05:41;;;;;;;30.08;3.83;;;11.50;99.90;;;;;;5053235;28;20056;-47
2022/10/02 07:11:54;;;;;;;23.77;3.80;;;11.70;99.90;;;;;;5052637;28;20078;-45
2022/10/02 07:14:26;;;;;;;;;;;11.90;99.90;;;;;;5049748;28;20057;-46
2022/10/02 07:17:07;;;;;;;17.77;3.10;;;12.00;99.90;;;;;;5047899;28;20495;-46
2022/10/02 07:19:40;;;;;;;21.67;3.85;;;12.10;99.90;;;;;;5053972;28;20474;-43
2022/10/02 07:22:17;;;;;;;23.95;3.78;;;12.20;99.90;;;;;;5060870;28;20496;-43
2022/10/02 07:24:53;;;;;;;27.38;3.45;;;12.40;99.90;;;;;;5053243;28;20516;-43
2022/10/02 07:27:22;;;;;;;19.52;3.28;;;12.50;99.90;;;;;;5050859;28;20049;-43
2022/10/02 07:29:52;;;;;;;22.90;3.40;;;12.60;99.90;;;;;;5051846;28;20060;-43
2022/10/02 07:32:41;;;;;;;21.75;3.70;;;12.80;99.90;;;;;;5053047;28;20420;-45
2022/10/02 07:35:22;;;;;;;24.55;3.58;;;12.90;99.90;;;;;;5049409;28;20051;-45
2022/10/02 07:37:54;;;;;;;18.83;3.50;;;13.00;99.90;;;;;;5054456;28;20045;-44
2022/10/02 07:40:27;;;;;;;;;;;13.10;99.90;;;;;;5049416;28;20057;-45
2022/10/02 07:43:16;;;;;;;18.08;3.63;;;13.10;99.90;;;;;;5057257;28;19924;-45
2022/10/02 07:45:43;;;;;;;19.88;2.80;;;13.10;99.90;;;;;;5052616;28;20123;-47
2022/10/02 07:48:40;;;;;;;16.90;3.10;;;13.10;99.90;;;;;;5057976;28;20052;-45
2022/10/02 07:54:00;;;;;;;20.80;4.03;;;13.00;99.90;;;;;;5059721;28;20512;-47
2022/10/02 07:56:27;;;;;;;26.75;3.65;;;13.10;99.90;;;;;;5050808;28;20041;-48
2022/10/02 07:58:58;;;;;;;14.80;3.78;;;13.30;99.90;;;;;;5070530;28;20519;-47
2022/10/02 08:01:26;;;;;;;25.87;3.47;;;13.40;99.90;;;;;;5058971;28;20088;-47
2022/10/02 08:03:54;;;;;;;19.77;4.07;;;13.60;99.90;;;;;;5050231;28;20075;-45
2022/10/02 08:06:21;;;;;;;20.38;3.67;;;13.70;99.90;;;;;;5053941;28;20041;-45
2022/10/02 08:08:51;;;;;;;16.45;3.20;;;13.90;99.90;;;;;;5052818;28;20397;-45
2022/10/02 08:11:21;;;;;;;20.08;3.13;;;14.10;99.90;;;;;;5053104;28;20063;-44
2022/10/02 08:13:49;;;;;;;17.42;2.58;;;14.30;99.90;;;;;;5037036;28;20423;-44
2022/10/02 08:16:18;;;;;;;16.42;3.58;;;14.50;99.90;;;;;;5052761;28;20041;-46
2022/10/02 08:18:47;;;;;;;19.10;2.85;;;14.50;99.90;;;;;;5052956;28;20079;-43
2022/10/02 08:21:16;;;;;;;19.13;3.35;;;14.40;99.90;;;;;;5054115;28;20057;-43
2022/10/02 08:23:46;;;;;;;22.92;3.75;;;14.50;99.90;;;;;;5052920;28;20072;-45
2022/10/02 08:26:15;;;;;;;17.35;2.78;;;14.60;99.90;;;;;;5050511;28;20572;-43
2022/10/02 08:28:44;;;;;;;16.75;3.08;;;14.70;99.90;;;;;;5050963;28;20045;-44
2022/10/02 08:31:11;;;;;;;17.73;3.38;;;14.90;99.90;;;;;;5048162;28;20067;-44
2022/10/02 08:33:39;;;;;;;19.52;3.33;;;14.90;99.90;;;;;;5048823;28;20055;-43
2022/10/02 08:36:44;;;;;;;16.02;2.85;;;15.00;99.90;;;;;;5048268;28;20068;-44
2022/10/02 08:39:20;;;;;;;20.02;3.53;;;15.20;99.90;;;;;;5049197;28;20045;-42
2022/10/02 08:42:06;;;;;;;23.30;3.58;;;15.30;99.90;;;;;;5052610;28;20719;-47
2022/10/02 08:45:06;;;;;;;23.27;3.20;;;15.40;99.90;;;;;;5043114;28;20132;-48
2022/10/02 08:48:01;;;;;;;21.30;3.20;;;15.50;99.90;;;;;;5045929;28;20421;-45
2022/10/02 08:50:55;;;;;;;18.13;2.65;;;15.70;99.90;;;;;;5051725;28;20469;-46
2022/10/02 08:53:51;;;;;;;25.95;3.42;;;15.80;99.90;;;;;;5048578;28;20085;-47
2022/10/02 08:56:25;;;;;;;17.15;3.10;;;15.90;99.90;;;;;;5009656;28;20048;-44
2022/10/02 08:59:24;;;;;;;18.55;3.38;;;16.00;99.90;;;;;;5051533;28;20106;-45
2022/10/02 09:02:32;;;;;;;20.63;3.28;;;16.20;99.90;;;;;;5033251;28;20053;-44
2022/10/02 09:05:24;;;;;;;19.52;2.80;;;16.20;99.90;;;;;;4989617;28;20054;-42
2022/10/02 09:08:26;;;;;;;19.70;2.55;;;16.30;99.90;;;;;;5054676;28;20454;-40
2022/10/02 09:11:11;;;;;;;;;;;16.20;99.90;;;;;;5060377;28;20470;-43
2022/10/02 09:14:20;;;;;;;25.13;2.90;;;16.20;99.90;;;;;;5049555;28;19921;-45
2022/10/02 09:17:05;;;;;;;21.77;3.25;;;16.20;99.90;;;;;;5055630;28;20052;-43
2022/10/02 09:19:55;;;;;;;20.15;3.28;;;16.30;99.90;;;;;;5064718;28;20048;-42
2022/10/02 09:22:38;;;;;;;29.02;3.45;;;16.30;99.90;;;;;;5052541;28;20489;-45
2022/10/02 09:25:21;;;;;;;23.38;3.53;;;16.30;99.90;;;;;;5051777;28;20150;-43
2022/10/02 09:28:04;;;;;;;15.88;2.55;;;16.30;99.90;;;;;;5051389;28;20479;-44
2022/10/02 09:30:42;;;;;;;16.95;2.90;;;16.30;99.90;;;;;;5048414;28;20053;-44
2022/10/02 09:33:34;;;;;;;18.85;3.05;;;16.20;99.90;;;;;;5051245;28;20056;-43
2022/10/02 09:36:26;;;;;;;18.40;2.70;;;16.10;99.90;;;;;;5052572;28;20104;-42
2022/10/02 09:39:23;;;;;;;21.17;2.97;;;16.00;99.90;;;;;;5050665;28;20319;-44
2022/10/02 09:42:14;;;;;;;14.23;2.63;;;16.00;99.90;;;;;;5044358;28;20088;-44
2022/10/02 09:45:20;;;;;;;18.55;3.08;;;15.90;99.90;;;;;;5053759;28;20140;-43
2022/10/02 09:48:10;;;;;;;20.83;2.63;;;15.80;99.90;;;;;;4990091;28;20051;-43
2022/10/02 09:50:59;;;;;;;18.00;2.90;;;15.90;99.90;;;;;;4970121;28;20057;-43
2022/10/02 09:53:56;;;;;;;20.75;3.15;;;16.00;99.90;;;;;;5031658;28;20455;-43
2022/10/02 09:56:38;;;;;;;19.80;3.05;;;16.10;99.90;;;;;;5051966;28;20098;-45
2022/10/02 09:59:35;;;;;;;17.17;2.97;;;16.30;99.90;;;;;;5051603;28;20107;-43
2022/10/02 10:02:12;;;;;;;18.77;2.88;;;16.50;99.90;;;;;;5034582;28;20143;-43
2022/10/02 10:05:30;;;;;;;16.63;3.13;;;16.70;99.90;;;;;;5068086;28;20076;-44
2022/10/02 10:08:12;;;;;;;15.38;2.90;;;16.80;99.90;;;;;;5015992;28;20060;-42
2022/10/02 10:10:50;;;;;;;15.60;2.65;;;17.00;99.90;;;;;;5067751;28;20469;-42
2022/10/02 10:13:36;;;;;;;16.35;3.00;;;17.10;99.90;;;;;;5049793;28;20106;-40
2022/10/02 10:16:29;;;;;;;10.27;2.28;;;17.30;99.90;;;;;;5043858;28;20141;-43
2022/10/02 10:19:35;;;;;;;15.50;2.35;;;17.40;99.90;;;;;;5052426;28;20052;-42
2022/10/02 10:22:13;;;;;;;11.52;2.08;;;17.40;99.90;;;;;;5017792;28;20145;-41
2022/10/02 10:25:17;;;;;;;14.73;2.22;;;17.50;99.90;;;;;;5029272;28;20084;-40
2022/10/02 10:28:08;;;;;;;14.32;2.72;;;17.60;99.90;;;;;;5034861;28;20049;-41
2022/10/02 10:30:50;;;;;;;12.43;2.45;;;17.70;99.90;;;;;;5027361;28;20124;-40
2022/10/02 10:33:50;;;;;;;13.20;2.17;;;17.80;99.90;;;;;;5047034;28;20048;-42
2022/10/02 10:40:09;;;;;;;12.73;2.55;;;17.90;99.90;;;;;;5048804;28;20069;-41
2022/10/02 10:42:49;;;;;;;15.75;2.80;;;18.00;99.90;;;;;;5026125;28;20099;-42
2022/10/02 10:45:22;;;;;;;15.65;2.47;;;18.10;99.90;;;;;;5025955;28;20095;-41
2022/10/02 10:47:57;;;;;;;15.40;2.33;;;18.10;99.90;;;;;;5033205;28;20140;-41
2022/10/02 10:50:33;;;;;;;13.07;2.33;;;18.10;99.40;;;;;;5048579;28;20134;-38
2022/10/02 10:53:39;;;;;;;12.18;2.70;;;18.10;98.70;;;;;;5042389;28;20116;-39
2022/10/02 10:56:38;;;;;;;12.48;2.28;;;17.90;99.00;;;;;;5049845;28;20680;-42
2022/10/02 10:59:17;;;;;;;12.30;2.33;;;17.80;99.20;;;;;;5040709;28;20052;-44
2022/10/02 11:01:49;;;;;;;12.70;2.38;;;17.80;99.10;;;;;;5062633;28;20037;-41
2022/10/02 11:04:35;;;;;;;14.30;2.15;;;17.80;99.70;;;;;;5058504;28;20077;-40
2022/10/02 11:07:07;;;;;;;15.80;2.15;;;17.90;99.80;;;;;;5043963;28;20048;-41
2022/10/02 11:10:03;;;;;;;12.57;2.80;;;18.10;98.90;;;;;;5058471;28;20053;-40
2022/10/02 11:13:08;;;;;;;17.52;2.70;;;18.20;96.70;;;;;;5041561;28;20075;-42
2022/10/02 11:16:01;;;;;;;12.75;2.50;;;18.30;97.50;;;;;;5053983;28;20048;-40
2022/10/02 11:18:37;;;;;;;13.60;2.47;;;18.30;96.70;;;;;;5070995;28;20056;-41
2022/10/02 11:21:17;;;;;;;13.48;2.83;;;18.30;98.20;;;;;;5054370;28;20051;-40
2022/10/02 11:24:12;;;;;;;17.15;3.17;;;18.20;98.20;;;;;;5069066;28;20500;-48
2022/10/02 11:26:58;;;;;;;15.55;2.30;;;17.80;99.60;;;;;;5073332;28;20052;-47
2022/10/02 11:30:03;;;;;;;16.08;2.30;;;17.50;99.90;;;;;;5059482;28;20106;-43
2022/10/02 11:32:45;;;;;;;15.00;2.97;;;17.10;99.90;;;;;;5043704;28;20045;-48
2022/10/02 11:35:15;;;;;;;;;;;16.90;99.90;;;;;;5054614;28;20512;-49
2022/10/02 11:38:09;;;;;;;14.02;2.58;;;16.80;99.90;;;;;;5054863;28;19975;-48
2022/10/02 11:41:00;;;;;;;13.63;3.08;;;16.80;99.90;;;;;;5033385;28;20104;-47
2022/10/02 11:44:01;;;;;;;25.00;3.17;;;16.80;99.90;;;;;;5064445;28;20061;-50
2022/10/02 11:46:59;;;;;;;22.80;3.60;;;16.90;99.90;;;;;;5063132;28;20079;-47
2022/10/02 11:49:50;;;;;;;20.42;3.78;;;17.10;99.90;;;;;;5069871;28;20515;-45
2022/10/02 11:52:40;;;;;;;17.73;3.33;;;17.20;99.90;;;;;;5074781;28;20106;-48
2022/10/02 11:55:17;;;;;;;20.20;3.10;;;17.40;99.90;;;;;;5074508;28;20132;-49
2022/10/02 11:57:47;;;;;;;19.10;2.67;;;17.50;99.90;;;;;;5053686;28;20401;-45
2022/10/02 12:00:34;;;;;;;20.05;3.38;;;17.70;99.90;;;;;;5053611;28;20072;-48
2022/10/02 12:03:04;;;;;;;18.30;2.83;;;17.80;99.90;;;;;;5053249;28;20056;-50
2022/10/02 12:05:47;;;;;;;18.85;3.03;;;17.90;99.90;;;;;;5053246;28;20080;-48
2022/10/02 12:08:17;;;;;;;18.58;3.03;;;18.00;99.90;;;;;;5053623;28;20507;-47
2022/10/02 12:10:49;;;;;;;18.02;3.55;;;18.10;99.90;;;;;;5054335;28;20144;-46
2022/10/02 12:14:00;;;;;;;20.55;2.85;;;18.20;99.90;;;;;;5053319;28;20061;-45
2022/10/02 12:16:32;;;;;;;12.93;2.15;;;18.30;99.90;;;;;;5038269;28;20139;-48
2022/10/02 12:19:14;;;;;;;21.42;2.78;;;18.30;99.90;;;;;;5053122;28;20084;-43
2022/10/02 12:27:41;;;;;;;10.68;2.30;;;18.50;99.10;;;;;;5046591;28;20114;-44
2022/10/02 12:30:09;;;;;;;14.82;2.92;;;18.50;98.40;;;;;;5052864;28;20057;-44
2022/10/02 12:32:49;;;;;;;15.63;2.70;;;18.60;98.40;;;;;;5052052;28;20053;-42
2022/10/02 12:35:39;;;;;;;15.80;3.22;;;18.60;98.10;;;;;;5069180;28;20060;-44
2022/10/02 12:38:12;;;;;;;16.63;2.72;;;18.50;98.30;;;;;;5066600;28;20098;-43
2022/10/02 12:40:43;;;;;;;14.68;3.30;;;18.30;98.70;;;;;;5066739;28;20052;-43
2022/10/02 12:43:30;;;;;;;18.45;3.13;;;18.20;99.00;;;;;;5056849;28;20082;-43
2022/10/02 12:46:09;;;;;;;14.88;3.00;;;18.30;99.40;;;;;;5051366;28;20056;-41
2022/10/02 12:48:43;;;;;;;15.05;3.08;;;18.40;99.80;;;;;;5052238;28;20053;-42
2022/10/02 12:51:32;;;;;;;14.25;2.30;;;18.60;98.90;;;;;;5054072;28;20053;-42
2022/10/02 12:54:44;;;;;;;21.85;3.63;;;18.60;98.00;;;;;;5043795;28;20098;-41
2022/10/02 13:00:10;;;;;;;15.35;3.22;;;18.60;97.50;;;;;;5068835;28;20083;-41
2022/10/02 13:03:16;;;;;;;15.40;2.63;;;18.60;97.60;;;;;;5067695;28;20049;-42
2022/10/02 13:06:25;;;;;;;17.85;2.83;;;18.70;96.70;;;;;;5050607;28;20528;-41
2022/10/02 13:09:04;;;;;;;12.25;2.55;;;18.80;96.70;;;;;;5055240;28;20451;-42
2022/10/02 13:11:36;;;;;;;16.27;2.53;;;18.80;96.70;;;;;;5070925;28;20049;-40
2022/10/02 13:14:25;;;;;;;18.55;2.72;;;18.80;96.30;;;;;;5071558;28;20096;-39
2022/10/02 13:17:04;;;;;;;17.42;2.65;;;18.90;95.90;;;;;;5072735;28;20413;-40
2022/10/02 13:19:33;;;;;;;17.77;3.00;;;19.00;95.30;;;;;;5055595;28;20135;-40
2022/10/02 13:22:03;;;;;;;13.25;2.70;;;18.90;95.90;;;;;;5071841;28;20090;-41
2022/10/02 13:24:41;;;;;;;13.60;2.20;;;18.80;95.70;;;;;;5064064;28;20139;-40
2022/10/02 13:27:15;;;;;;;12.38;2.58;;;18.70;96.30;;;;;;5072030;28;20084;-40
2022/10/02 13:29:50;;;;;;;15.95;2.97;;;18.60;96.40;;;;;;5066901;28;20055;-41
2022/10/02 13:32:30;;;;;;;15.20;2.42;;;18.60;96.60;;;;;;5056493;28;20059;-42
2022/10/02 13:35:23;;;;;;;12.18;2.42;;;18.60;96.50;;;;;;5051560;28;20496;-41
2022/10/02 13:37:58;;;;;;;9.43;1.67;;;18.60;96.40;;;;;;5052200;28;20045;-39
2022/10/02 13:40:27;;;;;;;13.13;2.47;;;18.50;96.40;;;;;;5052840;28;20071;-40
2022/10/02 13:43:26;;;;;;;17.73;3.13;;;18.40;96.70;;;;;;5058421;28;20041;-42
2022/10/02 13:45:55;;;;;;;14.07;2.92;;;18.30;96.20;;;;;;5071509;28;20492;-41
2022/10/02 13:48:26;;;;;;;18.27;3.05;;;18.20;96.60;;;;;;5062469;28;20094;-41
2022/10/02 13:50:56;;;;;;;11.75;2.20;;;18.00;96.60;;;;;;5039248;28;20049;-42